sensor_id;sensor_type;location;lat;lon;timestamp;pressure;altitude;pressure_sealevel;temperature;humidity
32452;BME280;45528;52.102;5.242;2023-12-29T00:00:27;100191.0;;;16.68;56.37
32452;BME280;45528;52.102;5.242;2023-12-29T00:02:04;100226.0;;;16.66;56.73
32452;BME280;45528;52.102;5.242;2023-12-29T00:03:40;100217.0;;;16.75;56.58
32452;BME280;45528;52.102;5.242;2023-12-29T00:06:52;100215.0;;;16.65;57.21
32452;BME280;45528;52.102;5.242;2023-12-29T00:08:28;100222.0;;;16.91;56.68
32452;BME280;45528;52.102;5.242;2023-12-29T00:10:05;100214.0;;;16.79;57.42
32452;BME280;45528;52.102;5.242;2023-12-29T00:13:17;100217.0;;;16.34;59.17
32452;BME280;45528;52.102;5.242;2023-12-29T00:14:53;100216.0;;;16.28;59.81
32452;BME280;45528;52.102;5.242;2023-12-29T00:16:29;100215.0;;;16.36;60.42
32452;BME280;45528;52.102;5.242;2023-12-29T00:19:42;100199.0;;;16.18;61.52
32452;BME280;45528;52.102;5.242;2023-12-29T00:21:18;100210.0;;;16.54;60.68
32452;BME280;45528;52.102;5.242;2023-12-29T00:22:54;100199.0;;;16.47;60.84
32452;BME280;45528;52.102;5.242;2023-12-29T00:24:30;100211.0;;;16.7;60.26
32452;BME280;45528;52.102;5.242;2023-12-29T00:27:42;100201.0;;;16.48;60.6
32452;BME280;45528;52.102;5.242;2023-12-29T00:29:18;100199.0;;;16.31;61.15
32452;BME280;45528;52.102;5.242;2023-12-29T00:30:54;100193.0;;;15.94;61.64
32452;BME280;45528;52.102;5.242;2023-12-29T00:34:07;100195.0;;;16.13;61.08
32452;BME280;45528;52.102;5.242;2023-12-29T00:35:43;100201.0;;;15.89;61.49
32452;BME280;45528;52.102;5.242;2023-12-29T00:37:19;100202.0;;;16.47;60.11
32452;BME280;45528;52.102;5.242;2023-12-29T00:40:31;100187.0;;;16.43;59.67
32452;BME280;45528;52.102;5.242;2023-12-29T00:42:07;100189.0;;;16.36;59.54
32452;BME280;45528;52.102;5.242;2023-12-29T00:43:43;100167.0;;;16.36;59.56
32452;BME280;45528;52.102;5.242;2023-12-29T00:46:56;100175.0;;;16.18;59.36
32452;BME280;45528;52.102;5.242;2023-12-29T00:48:32;100178.0;;;16.36;59.31
32452;BME280;45528;52.102;5.242;2023-12-29T00:50:08;100173.0;;;16.36;58.66
32452;BME280;45528;52.102;5.242;2023-12-29T00:51:46;100186.0;;;16.2;59.3
32452;BME280;45528;52.102;5.242;2023-12-29T00:54:59;100177.0;;;16.37;58.87
32452;BME280;45528;52.102;5.242;2023-12-29T00:56:35;100183.0;;;16.61;57.91
32452;BME280;45528;52.102;5.242;2023-12-29T00:58:11;100186.0;;;16.77;57.07
32452;BME280;45528;52.102;5.242;2023-12-29T01:01:24;100174.0;;;16.09;58.48
32452;BME280;45528;52.102;5.242;2023-12-29T01:03:00;100168.0;;;16.7;56.9
32452;BME280;45528;52.102;5.242;2023-12-29T01:04:37;100180.0;;;16.47;57.68
32452;BME280;45528;52.102;5.242;2023-12-29T01:07:50;100190.0;;;16.8;57.16
32452;BME280;45528;52.102;5.242;2023-12-29T01:09:26;100175.0;;;16.53;57.22
32452;BME280;45528;52.102;5.242;2023-12-29T01:11:02;100174.0;;;16.73;57.28
32452;BME280;45528;52.102;5.242;2023-12-29T01:12:39;100163.0;;;17.02;56.49
32452;BME280;45528;52.102;5.242;2023-12-29T01:15:51;100169.0;;;16.48;57.64
32452;BME280;45528;52.102;5.242;2023-12-29T01:17:28;100167.0;;;16.59;57.62
32452;BME280;45528;52.102;5.242;2023-12-29T01:19:04;100188.0;;;16.8;56.91
32452;BME280;45528;52.102;5.242;2023-12-29T01:22:16;100187.0;;;16.53;57.51
32452;BME280;45528;52.102;5.242;2023-12-29T01:23:52;100159.0;;;16.02;58.48
32452;BME280;45528;52.102;5.242;2023-12-29T01:25:28;100173.0;;;16.27;58.25
32452;BME280;45528;52.102;5.242;2023-12-29T01:28:40;100148.0;;;16.59;56.98
32452;BME280;45528;52.102;5.242;2023-12-29T01:30:16;100178.0;;;16.68;57.15
32452;BME280;45528;52.102;5.242;2023-12-29T01:31:52;100176.0;;;16.81;56.55
32452;BME280;45528;52.102;5.242;2023-12-29T01:33:28;100184.0;;;16.78;56.89
32452;BME280;45528;52.102;5.242;2023-12-29T01:36:42;100153.0;;;16.64;57.0
32452;BME280;45528;52.102;5.242;2023-12-29T01:38:18;100164.0;;;16.89;56.8
32452;BME280;45528;52.102;5.242;2023-12-29T01:39:54;100155.0;;;16.16;57.89
32452;BME280;45528;52.102;5.242;2023-12-29T01:43:06;100156.0;;;16.55;57.56
32452;BME280;45528;52.102;5.242;2023-12-29T01:44:42;100160.0;;;16.73;57.07
32452;BME280;45528;52.102;5.242;2023-12-29T01:46:18;100152.0;;;16.61;56.99
32452;BME280;45528;52.102;5.242;2023-12-29T01:49:33;100171.0;;;16.41;57.7
32452;BME280;45528;52.102;5.242;2023-12-29T01:51:10;100169.0;;;16.91;56.42
32452;BME280;45528;52.102;5.242;2023-12-29T01:52:48;100147.0;;;16.36;57.63
32452;BME280;45528;52.102;5.242;2023-12-29T01:54:27;100160.0;;;16.7;56.89
32452;BME280;45528;52.102;5.242;2023-12-29T01:57:43;100172.0;;;16.64;57.32
32452;BME280;45528;52.102;5.242;2023-12-29T01:59:19;100160.0;;;16.82;56.5
32452;BME280;45528;52.102;5.242;2023-12-29T02:00:55;100155.0;;;16.82;56.68
32452;BME280;45528;52.102;5.242;2023-12-29T02:06:24;100171.0;;;16.75;56.8
32452;BME280;45528;52.102;5.242;2023-12-29T02:08:01;100181.0;;;16.53;57.66
32452;BME280;45528;52.102;5.242;2023-12-29T02:09:38;100168.0;;;16.38;58.12
32452;BME280;45528;52.102;5.242;2023-12-29T02:11:16;100180.0;;;16.27;58.41
32452;BME280;45528;52.102;5.242;2023-12-29T02:14:29;100178.0;;;16.56;57.96
32452;BME280;45528;52.102;5.242;2023-12-29T02:16:08;100178.0;;;16.93;57.17
32452;BME280;45528;52.102;5.242;2023-12-29T02:17:50;100180.0;;;16.52;57.83
32452;BME280;45528;52.102;5.242;2023-12-29T02:19:37;100196.0;;;16.52;58.07
32452;BME280;45528;52.102;5.242;2023-12-29T02:22:49;100158.0;;;16.65;57.33
32452;BME280;45528;52.102;5.242;2023-12-29T02:24:26;100196.0;;;16.78;57.45
32452;BME280;45528;52.102;5.242;2023-12-29T02:26:07;100205.0;;;16.77;57.73
32452;BME280;45528;52.102;5.242;2023-12-29T02:29:29;100180.0;;;16.37;58.34
32452;BME280;45528;52.102;5.242;2023-12-29T02:31:14;100177.0;;;16.59;58.23
32452;BME280;45528;52.102;5.242;2023-12-29T02:32:55;100169.0;;;16.52;58.18
32452;BME280;45528;52.102;5.242;2023-12-29T02:34:35;100182.0;;;16.78;57.58
32452;BME280;45528;52.102;5.242;2023-12-29T02:36:16;100164.0;;;16.03;59.0
32452;BME280;45528;52.102;5.242;2023-12-29T02:39:30;100177.0;;;16.62;58.18
32452;BME280;45528;52.102;5.242;2023-12-29T02:41:06;100175.0;;;16.36;58.66
32452;BME280;45528;52.102;5.242;2023-12-29T02:42:45;100187.0;;;16.56;58.57
32452;BME280;45528;52.102;5.242;2023-12-29T02:45:57;100177.0;;;16.48;58.68
32452;BME280;45528;52.102;5.242;2023-12-29T02:47:33;100165.0;;;16.47;59.72
32452;BME280;45528;52.102;5.242;2023-12-29T02:49:09;100173.0;;;16.18;60.31
32452;BME280;45528;52.102;5.242;2023-12-29T02:52:21;100164.0;;;16.28;60.31
32452;BME280;45528;52.102;5.242;2023-12-29T02:53:57;100155.0;;;16.13;60.62
32452;BME280;45528;52.102;5.242;2023-12-29T02:55:34;100176.0;;;16.2;60.73
32452;BME280;45528;52.102;5.242;2023-12-29T02:57:10;100178.0;;;16.36;60.45
32452;BME280;45528;52.102;5.242;2023-12-29T03:00:22;100185.0;;;16.37;60.67
32452;BME280;45528;52.102;5.242;2023-12-29T03:01:58;100183.0;;;16.12;61.23
32452;BME280;45528;52.102;5.242;2023-12-29T03:03:34;100178.0;;;15.89;62.07
32452;BME280;45528;52.102;5.242;2023-12-29T03:06:46;100194.0;;;16.04;61.55
32452;BME280;45528;52.102;5.242;2023-12-29T03:08:23;100188.0;;;16.0;61.66
32452;BME280;45528;52.102;5.242;2023-12-29T03:09:59;100166.0;;;15.7;61.81
32452;BME280;45528;52.102;5.242;2023-12-29T03:13:12;100188.0;;;16.05;61.18
32452;BME280;45528;52.102;5.242;2023-12-29T03:14:48;100175.0;;;16.11;60.66
32452;BME280;45528;52.102;5.242;2023-12-29T03:16:24;100187.0;;;16.06;60.81
32452;BME280;45528;52.102;5.242;2023-12-29T03:19:36;100205.0;;;16.11;60.53
32452;BME280;45528;52.102;5.242;2023-12-29T03:21:17;100181.0;;;15.93;60.35
32452;BME280;45528;52.102;5.242;2023-12-29T03:22:53;100196.0;;;16.06;60.51
32452;BME280;45528;52.102;5.242;2023-12-29T03:24:30;100196.0;;;16.11;59.96
32452;BME280;45528;52.102;5.242;2023-12-29T03:27:42;100173.0;;;16.16;59.71
32452;BME280;45528;52.102;5.242;2023-12-29T03:29:18;100181.0;;;15.92;60.18
32452;BME280;45528;52.102;5.242;2023-12-29T03:30:54;100180.0;;;16.38;58.87
32452;BME280;45528;52.102;5.242;2023-12-29T03:34:06;100181.0;;;16.27;59.02
32452;BME280;45528;52.102;5.242;2023-12-29T03:35:42;100164.0;;;16.07;59.26
32452;BME280;45528;52.102;5.242;2023-12-29T03:37:18;100173.0;;;16.36;58.69
32452;BME280;45528;52.102;5.242;2023-12-29T03:40:30;100173.0;;;16.06;59.04
32452;BME280;45528;52.102;5.242;2023-12-29T03:42:06;100194.0;;;16.43;58.43
32452;BME280;45528;52.102;5.242;2023-12-29T03:43:43;100186.0;;;16.29;58.4
32452;BME280;45528;52.102;5.242;2023-12-29T03:45:19;100183.0;;;16.64;57.82
32452;BME280;45528;52.102;5.242;2023-12-29T03:48:31;100190.0;;;16.36;58.57
32452;BME280;45528;52.102;5.242;2023-12-29T03:50:08;100175.0;;;16.11;59.0
32452;BME280;45528;52.102;5.242;2023-12-29T03:51:44;100158.0;;;16.3;58.57
32452;BME280;45528;52.102;5.242;2023-12-29T03:54:56;100171.0;;;16.68;58.0
32452;BME280;45528;52.102;5.242;2023-12-29T03:56:32;100161.0;;;16.61;58.24
32452;BME280;45528;52.102;5.242;2023-12-29T03:58:08;100176.0;;;16.27;59.06
32452;BME280;45528;52.102;5.242;2023-12-29T04:01:21;100133.0;;;16.31;58.94
32452;BME280;45528;52.102;5.242;2023-12-29T04:02:57;100144.0;;;16.71;59.13
32452;BME280;45528;52.102;5.242;2023-12-29T04:04:36;100158.0;;;16.46;59.9
32452;BME280;45528;52.102;5.242;2023-12-29T04:06:16;100142.0;;;16.55;59.8
32452;BME280;45528;52.102;5.242;2023-12-29T04:09:28;100139.0;;;16.65;59.83
32452;BME280;45528;52.102;5.242;2023-12-29T04:11:05;100140.0;;;16.77;59.4
32452;BME280;45528;52.102;5.242;2023-12-29T04:12:41;100135.0;;;16.46;60.09
32452;BME280;45528;52.102;5.242;2023-12-29T04:15:54;100107.0;;;16.09;60.53
32452;BME280;45528;52.102;5.242;2023-12-29T04:17:30;100127.0;;;15.93;61.36
32452;BME280;45528;52.102;5.242;2023-12-29T04:22:18;100151.0;;;16.52;59.9
32452;BME280;45528;52.102;5.242;2023-12-29T04:23:54;100155.0;;;16.13;60.89
32452;BME280;45528;52.102;5.242;2023-12-29T04:25:30;100148.0;;;16.18;60.71
32452;BME280;45528;52.102;5.242;2023-12-29T04:28:42;100148.0;;;16.38;59.59
32452;BME280;45528;52.102;5.242;2023-12-29T04:30:19;100142.0;;;16.28;59.35
32452;BME280;45528;52.102;5.242;2023-12-29T04:31:55;100141.0;;;16.22;60.27
32452;BME280;45528;52.102;5.242;2023-12-29T04:33:31;100169.0;;;16.05;60.78
32452;BME280;45528;52.102;5.242;2023-12-29T04:36:43;100150.0;;;15.95;59.96
32452;BME280;45528;52.102;5.242;2023-12-29T04:38:19;100159.0;;;15.92;60.53
32452;BME280;45528;52.102;5.242;2023-12-29T04:39:55;100174.0;;;16.0;60.37
32452;BME280;45528;52.102;5.242;2023-12-29T04:43:07;100173.0;;;15.87;59.91
32452;BME280;45528;52.102;5.242;2023-12-29T04:44:43;100173.0;;;16.37;59.31
32452;BME280;45528;52.102;5.242;2023-12-29T04:46:19;100170.0;;;16.45;58.85
32452;BME280;45528;52.102;5.242;2023-12-29T04:49:32;100155.0;;;16.7;57.71
32452;BME280;45528;52.102;5.242;2023-12-29T04:51:11;100156.0;;;16.45;58.17
32452;BME280;45528;52.102;5.242;2023-12-29T04:52:47;100155.0;;;16.84;57.65
32452;BME280;45528;52.102;5.242;2023-12-29T04:54:24;100164.0;;;16.75;57.33
32452;BME280;45528;52.102;5.242;2023-12-29T04:57:36;100156.0;;;16.43;58.51
32452;BME280;45528;52.102;5.242;2023-12-29T04:59:12;100155.0;;;16.11;59.34
32452;BME280;45528;52.102;5.242;2023-12-29T05:00:48;100150.0;;;16.09;59.04
32452;BME280;45528;52.102;5.242;2023-12-29T05:04:01;100135.0;;;16.5;57.87
32452;BME280;45528;52.102;5.242;2023-12-29T05:05:37;100152.0;;;16.25;58.66
32452;BME280;45528;52.102;5.242;2023-12-29T05:07:13;100137.0;;;16.53;58.07
32452;BME280;45528;52.102;5.242;2023-12-29T05:10:25;100141.0;;;16.37;58.39
32452;BME280;45528;52.102;5.242;2023-12-29T05:12:01;100140.0;;;16.4;58.21
32452;BME280;45528;52.102;5.242;2023-12-29T05:13:37;100149.0;;;16.5;58.11
32452;BME280;45528;52.102;5.242;2023-12-29T05:16:50;100136.0;;;16.7;57.44
32452;BME280;45528;52.102;5.242;2023-12-29T05:18:26;100135.0;;;16.25;57.81
32452;BME280;45528;52.102;5.242;2023-12-29T05:20:02;100130.0;;;16.11;58.51
32452;BME280;45528;52.102;5.242;2023-12-29T05:21:38;100149.0;;;16.41;58.21
32452;BME280;45528;52.102;5.242;2023-12-29T05:24:50;100155.0;;;16.61;58.03
32452;BME280;45528;52.102;5.242;2023-12-29T05:26:26;100122.0;;;16.2;58.76
32452;BME280;45528;52.102;5.242;2023-12-29T05:28:03;100156.0;;;16.5;57.96
32452;BME280;45528;52.102;5.242;2023-12-29T05:31:15;100156.0;;;16.23;58.67
32452;BME280;45528;52.102;5.242;2023-12-29T05:32:51;100149.0;;;16.5;57.77
32452;BME280;45528;52.102;5.242;2023-12-29T05:34:27;100141.0;;;16.52;58.11
32452;BME280;45528;52.102;5.242;2023-12-29T05:37:44;100148.0;;;16.61;57.78
32452;BME280;45528;52.102;5.242;2023-12-29T05:39:20;100145.0;;;16.75;57.44
32452;BME280;45528;52.102;5.242;2023-12-29T05:40:56;100147.0;;;16.82;57.44
32452;BME280;45528;52.102;5.242;2023-12-29T05:42:32;100148.0;;;16.52;58.1
32452;BME280;45528;52.102;5.242;2023-12-29T05:45:45;100152.0;;;16.31;58.56
32452;BME280;45528;52.102;5.242;2023-12-29T05:47:21;100143.0;;;16.52;57.96
32452;BME280;45528;52.102;5.242;2023-12-29T05:48:57;100141.0;;;16.72;57.69
32452;BME280;45528;52.102;5.242;2023-12-29T05:52:09;100144.0;;;16.53;57.71
32452;BME280;45528;52.102;5.242;2023-12-29T05:53:45;100150.0;;;16.2;58.78
32452;BME280;45528;52.102;5.242;2023-12-29T05:55:21;100142.0;;;16.2;59.13
32452;BME280;45528;52.102;5.242;2023-12-29T05:58:34;100139.0;;;16.61;57.78
32452;BME280;45528;52.102;5.242;2023-12-29T06:00:12;100136.0;;;16.78;57.37
32452;BME280;45528;52.102;5.242;2023-12-29T06:01:49;100131.0;;;16.52;57.67
32452;BME280;45528;52.102;5.242;2023-12-29T06:03:25;100115.0;;;16.38;57.94
32452;BME280;45528;52.102;5.242;2023-12-29T06:06:37;100136.0;;;16.18;58.75
32452;BME280;45528;52.102;5.242;2023-12-29T06:08:13;100137.0;;;16.75;57.51
32452;BME280;45528;52.102;5.242;2023-12-29T06:09:52;100106.0;;;16.61;57.31
32452;BME280;45528;52.102;5.242;2023-12-29T06:13:04;100121.0;;;16.96;56.73
32452;BME280;45528;52.102;5.242;2023-12-29T06:14:40;100153.0;;;17.0;56.75
32452;BME280;45528;52.102;5.242;2023-12-29T06:16:18;100130.0;;;16.41;57.77
32452;BME280;45528;52.102;5.242;2023-12-29T06:19:30;100144.0;;;16.28;58.38
32452;BME280;45528;52.102;5.242;2023-12-29T06:21:06;100131.0;;;16.13;58.55
32452;BME280;45528;52.102;5.242;2023-12-29T06:22:42;100130.0;;;16.43;57.95
32452;BME280;45528;52.102;5.242;2023-12-29T06:24:18;100121.0;;;16.43;57.85
32452;BME280;45528;52.102;5.242;2023-12-29T06:27:30;100142.0;;;16.64;57.28
32452;BME280;45528;52.102;5.242;2023-12-29T06:29:07;100142.0;;;16.98;56.47
32452;BME280;45528;52.102;5.242;2023-12-29T06:30:43;100156.0;;;16.9;56.41
32452;BME280;45528;52.102;5.242;2023-12-29T06:33:55;100142.0;;;16.88;56.38
32452;BME280;45528;52.102;5.242;2023-12-29T06:35:31;100138.0;;;17.05;55.75
32452;BME280;45528;52.102;5.242;2023-12-29T06:37:08;100155.0;;;17.25;55.35
32452;BME280;45528;52.102;5.242;2023-12-29T06:40:20;100136.0;;;16.66;56.73
32452;BME280;45528;52.102;5.242;2023-12-29T06:41:56;100145.0;;;16.7;56.71
32452;BME280;45528;52.102;5.242;2023-12-29T06:43:33;100152.0;;;16.59;57.24
32452;BME280;45528;52.102;5.242;2023-12-29T06:46:45;100139.0;;;16.7;56.95
32452;BME280;45528;52.102;5.242;2023-12-29T06:48:21;100139.0;;;16.52;57.13
32452;BME280;45528;52.102;5.242;2023-12-29T06:49:57;100122.0;;;16.2;57.88
32452;BME280;45528;52.102;5.242;2023-12-29T06:51:33;100134.0;;;16.68;57.17
32452;BME280;45528;52.102;5.242;2023-12-29T06:54:48;100137.0;;;16.48;57.49
32452;BME280;45528;52.102;5.242;2023-12-29T06:56:24;100134.0;;;16.34;57.49
32452;BME280;45528;52.102;5.242;2023-12-29T06:58:00;100137.0;;;16.75;57.0
32452;BME280;45528;52.102;5.242;2023-12-29T07:01:13;100132.0;;;16.68;56.61
32452;BME280;45528;52.102;5.242;2023-12-29T07:02:49;100143.0;;;16.53;57.42
32452;BME280;45528;52.102;5.242;2023-12-29T07:04:25;100136.0;;;16.62;57.18
32452;BME280;45528;52.102;5.242;2023-12-29T07:07:40;100138.0;;;16.52;57.55
32452;BME280;45528;52.102;5.242;2023-12-29T07:09:16;100148.0;;;16.05;58.79
32452;BME280;45528;52.102;5.242;2023-12-29T07:10:52;100145.0;;;16.52;57.77
32452;BME280;45528;52.102;5.242;2023-12-29T07:12:28;100150.0;;;16.57;57.58
32452;BME280;45528;52.102;5.242;2023-12-29T07:15:41;100136.0;;;16.52;57.41
32452;BME280;45528;52.102;5.242;2023-12-29T07:18:53;100130.0;;;16.65;57.54
32452;BME280;45528;52.102;5.242;2023-12-29T07:22:05;100143.0;;;16.68;57.82
32452;BME280;45528;52.102;5.242;2023-12-29T07:23:41;100142.0;;;16.77;57.38
32452;BME280;45528;52.102;5.242;2023-12-29T07:25:17;100142.0;;;16.79;57.49
32452;BME280;45528;52.102;5.242;2023-12-29T07:28:29;100155.0;;;16.64;57.75
32452;BME280;45528;52.102;5.242;2023-12-29T07:30:08;100155.0;;;16.57;58.09
32452;BME280;45528;52.102;5.242;2023-12-29T07:31:43;100147.0;;;16.23;58.75
32452;BME280;45528;52.102;5.242;2023-12-29T07:33:20;100163.0;;;16.59;58.11
32452;BME280;45528;52.102;5.242;2023-12-29T07:36:32;100147.0;;;16.57;58.05
32452;BME280;45528;52.102;5.242;2023-12-29T07:38:08;100151.0;;;16.47;58.79
32452;BME280;45528;52.102;5.242;2023-12-29T07:39:44;100142.0;;;16.61;58.6
32452;BME280;45528;52.102;5.242;2023-12-29T07:42:56;100151.0;;;16.52;58.95
32452;BME280;45528;52.102;5.242;2023-12-29T07:44:32;100151.0;;;16.36;59.5
32452;BME280;45528;52.102;5.242;2023-12-29T07:46:08;100147.0;;;16.7;58.57
32452;BME280;45528;52.102;5.242;2023-12-29T07:49:21;100144.0;;;16.45;59.36
32452;BME280;45528;52.102;5.242;2023-12-29T07:51:05;100135.0;;;16.07;60.33
32452;BME280;45528;52.102;5.242;2023-12-29T07:52:42;100136.0;;;16.25;59.77
32452;BME280;45528;52.102;5.242;2023-12-29T07:54:18;100131.0;;;16.75;58.32
32452;BME280;45528;52.102;5.242;2023-12-29T07:59:06;100152.0;;;16.43;59.33
32452;BME280;45528;52.102;5.242;2023-12-29T08:00:42;100148.0;;;16.53;59.22
32452;BME280;45528;52.102;5.242;2023-12-29T08:03:57;100155.0;;;16.36;59.24
32452;BME280;45528;52.102;5.242;2023-12-29T08:05:33;100151.0;;;16.56;59.0
32452;BME280;45528;52.102;5.242;2023-12-29T08:07:10;100144.0;;;16.62;58.9
32452;BME280;45528;52.102;5.242;2023-12-29T08:10:22;100160.0;;;17.13;57.65
32452;BME280;45528;52.102;5.242;2023-12-29T08:11:58;100152.0;;;16.68;58.47
32452;BME280;45528;52.102;5.242;2023-12-29T08:13:34;100144.0;;;16.62;58.69
32452;BME280;45528;52.102;5.242;2023-12-29T08:15:10;100161.0;;;16.66;59.03
32452;BME280;45528;52.102;5.242;2023-12-29T08:18:22;100157.0;;;16.9;58.29
32452;BME280;45528;52.102;5.242;2023-12-29T08:19:58;100166.0;;;17.06;58.57
32452;BME280;45528;52.102;5.242;2023-12-29T08:21:34;100167.0;;;16.89;59.21
32452;BME280;45528;52.102;5.242;2023-12-29T08:24:47;100170.0;;;16.46;60.28
32452;BME280;45528;52.102;5.242;2023-12-29T08:26:23;100172.0;;;16.89;59.16
32452;BME280;45528;52.102;5.242;2023-12-29T08:27:59;100175.0;;;16.71;59.43
32452;BME280;45528;52.102;5.242;2023-12-29T08:31:11;100170.0;;;16.73;59.39
32452;BME280;45528;52.102;5.242;2023-12-29T08:32:48;100166.0;;;16.27;60.75
32452;BME280;45528;52.102;5.242;2023-12-29T08:34:24;100173.0;;;16.34;60.33
32452;BME280;45528;52.102;5.242;2023-12-29T08:37:39;100173.0;;;16.29;60.14
32452;BME280;45528;52.102;5.242;2023-12-29T08:39:15;100178.0;;;16.81;59.1
32452;BME280;45528;52.102;5.242;2023-12-29T08:40:51;100155.0;;;16.4;59.24
32452;BME280;45528;52.102;5.242;2023-12-29T08:42:27;100172.0;;;16.43;59.91
32452;BME280;45528;52.102;5.242;2023-12-29T08:45:39;100160.0;;;16.59;59.36
32452;BME280;45528;52.102;5.242;2023-12-29T08:47:15;100181.0;;;16.86;58.7
32452;BME280;45528;52.102;5.242;2023-12-29T08:48:52;100178.0;;;16.61;59.89
32452;BME280;45528;52.102;5.242;2023-12-29T08:52:04;100147.0;;;16.39;60.36
32452;BME280;45528;52.102;5.242;2023-12-29T08:53:40;100167.0;;;16.38;61.37
32452;BME280;45528;52.102;5.242;2023-12-29T08:55:16;100161.0;;;16.2;61.86
32452;BME280;45528;52.102;5.242;2023-12-29T08:58:28;100166.0;;;16.36;61.54
32452;BME280;45528;52.102;5.242;2023-12-29T09:00:06;100160.0;;;16.36;61.24
32452;BME280;45528;52.102;5.242;2023-12-29T09:01:42;100171.0;;;16.27;61.66
32452;BME280;45528;52.102;5.242;2023-12-29T09:03:18;100153.0;;;16.47;61.22
32452;BME280;45528;52.102;5.242;2023-12-29T09:06:30;100168.0;;;16.47;61.58
32452;BME280;45528;52.102;5.242;2023-12-29T09:08:06;100161.0;;;16.22;61.96
32452;BME280;45528;52.102;5.242;2023-12-29T09:09:46;100158.0;;;16.41;61.38
32452;BME280;45528;52.102;5.242;2023-12-29T09:12:58;100168.0;;;16.71;60.51
32452;BME280;45528;52.102;5.242;2023-12-29T09:14:34;100180.0;;;16.14;61.75
32452;BME280;45528;52.102;5.242;2023-12-29T09:16:10;100185.0;;;16.46;61.33
32452;BME280;45528;52.102;5.242;2023-12-29T09:19:23;100182.0;;;16.72;60.73
32452;BME280;45528;52.102;5.242;2023-12-29T09:20:59;100177.0;;;16.14;61.6
32452;BME280;45528;52.102;5.242;2023-12-29T09:22:36;100164.0;;;16.29;61.7
32452;BME280;45528;52.102;5.242;2023-12-29T09:25:48;100183.0;;;16.84;60.21
32452;BME280;45528;52.102;5.242;2023-12-29T09:27:24;100178.0;;;16.59;60.34
32452;BME280;45528;52.102;5.242;2023-12-29T09:29:00;100195.0;;;16.79;60.07
32452;BME280;45528;52.102;5.242;2023-12-29T09:30:37;100185.0;;;16.97;59.66
32452;BME280;45528;52.102;5.242;2023-12-29T09:33:49;100168.0;;;16.2;60.95
32452;BME280;45528;52.102;5.242;2023-12-29T09:35:25;100203.0;;;16.61;60.49
32452;BME280;45528;52.102;5.242;2023-12-29T09:37:02;100200.0;;;16.93;59.75
32452;BME280;45528;52.102;5.242;2023-12-29T09:40:14;100203.0;;;16.93;59.47
32452;BME280;45528;52.102;5.242;2023-12-29T09:41:52;100193.0;;;16.77;59.26
32452;BME280;45528;52.102;5.242;2023-12-29T09:43:31;100192.0;;;16.93;59.17
32452;BME280;45528;52.102;5.242;2023-12-29T09:46:49;100190.0;;;16.55;59.85
32452;BME280;45528;52.102;5.242;2023-12-29T09:48:26;100205.0;;;17.13;59.07
32452;BME280;45528;52.102;5.242;2023-12-29T09:50:04;100188.0;;;17.34;58.05
32452;BME280;45528;52.102;5.242;2023-12-29T09:51:41;100202.0;;;17.43;58.1
32452;BME280;45528;52.102;5.242;2023-12-29T09:54:56;100209.0;;;17.0;59.2
32452;BME280;45528;52.102;5.242;2023-12-29T09:56:33;100209.0;;;17.32;58.33
32452;BME280;45528;52.102;5.242;2023-12-29T09:58:12;100212.0;;;17.56;57.42
32452;BME280;45528;52.102;5.242;2023-12-29T09:59:49;100194.0;;;17.06;58.23
32452;BME280;45528;52.102;5.242;2023-12-29T10:03:03;100187.0;;;16.7;59.13
32452;BME280;45528;52.102;5.242;2023-12-29T10:04:40;100206.0;;;17.09;58.85
32452;BME280;45528;52.102;5.242;2023-12-29T10:06:23;100196.0;;;16.8;59.25
32452;BME280;45528;52.102;5.242;2023-12-29T10:09:40;100184.0;;;17.27;58.5
32452;BME280;45528;52.102;5.242;2023-12-29T10:11:19;100192.0;;;17.12;58.38
32452;BME280;45528;52.102;5.242;2023-12-29T10:12:57;100194.0;;;17.38;58.23
32452;BME280;45528;52.102;5.242;2023-12-29T10:14:44;100197.0;;;17.3;57.95
32452;BME280;45528;52.102;5.242;2023-12-29T10:18:30;100180.0;;;17.48;57.34
32452;BME280;45528;52.102;5.242;2023-12-29T10:20:15;100201.0;;;17.91;56.61
32452;BME280;45528;52.102;5.242;2023-12-29T10:22:10;100214.0;;;17.46;57.4
32452;BME280;45528;52.102;5.242;2023-12-29T10:23:50;100206.0;;;17.37;57.48
32452;BME280;45528;52.102;5.242;2023-12-29T10:25:32;100210.0;;;17.7;56.97
32452;BME280;45528;52.102;5.242;2023-12-29T10:27:09;100221.0;;;17.64;56.99
32452;BME280;45528;52.102;5.242;2023-12-29T10:30:22;100192.0;;;17.62;56.88
32452;BME280;45528;52.102;5.242;2023-12-29T10:31:58;100205.0;;;17.05;58.07
32452;BME280;45528;52.102;5.242;2023-12-29T10:33:34;100203.0;;;17.84;56.58
32452;BME280;45528;52.102;5.242;2023-12-29T10:36:48;100223.0;;;17.7;56.62
32452;BME280;45528;52.102;5.242;2023-12-29T10:38:24;100214.0;;;17.75;56.87
32452;BME280;45528;52.102;5.242;2023-12-29T10:40:01;100200.0;;;17.68;56.74
32452;BME280;45528;52.102;5.242;2023-12-29T10:43:13;100222.0;;;17.93;56.53
32452;BME280;45528;52.102;5.242;2023-12-29T10:45:04;100224.0;;;17.86;56.04
32452;BME280;45528;52.102;5.242;2023-12-29T10:46:41;100222.0;;;17.55;56.82
32452;BME280;45528;52.102;5.242;2023-12-29T10:48:21;100240.0;;;17.57;56.92
32452;BME280;45528;52.102;5.242;2023-12-29T10:51:39;100228.0;;;17.81;56.47
32452;BME280;45528;52.102;5.242;2023-12-29T10:53:16;100231.0;;;17.75;56.28
32452;BME280;45528;52.102;5.242;2023-12-29T10:55:04;100213.0;;;17.66;56.21
32452;BME280;45528;52.102;5.242;2023-12-29T10:56:41;100234.0;;;17.37;56.86
32452;BME280;45528;52.102;5.242;2023-12-29T10:59:54;100236.0;;;17.41;56.73
32452;BME280;45528;52.102;5.242;2023-12-29T11:01:32;100236.0;;;17.34;56.71
32452;BME280;45528;52.102;5.242;2023-12-29T11:03:14;100230.0;;;17.37;56.98
32452;BME280;45528;52.102;5.242;2023-12-29T11:04:50;100247.0;;;17.71;56.27
32452;BME280;45528;52.102;5.242;2023-12-29T11:08:14;100242.0;;;17.41;56.74
32452;BME280;45528;52.102;5.242;2023-12-29T11:09:51;100221.0;;;17.22;56.89
32452;BME280;45528;52.102;5.242;2023-12-29T11:11:27;100239.0;;;17.66;56.05
32452;BME280;45528;52.102;5.242;2023-12-29T11:13:03;100248.0;;;17.87;55.42